Time;durP1;ratioP1;P1;durP2;ratioP2;P2;SDS_P1;SDS_P2;PMS_P1;PMS_P2;Temp;Humidity;BMP_temperature;BMP_pressure;BME280_temperature;BME280_humidity;BME280_pressure;Samples;Min_cycle;Max_cycle;Signal;HPM_P1;HPM_P2
2022/10/30 00:00:12;;;;;;;7.20;4.03;;;16.30;99.90;;;;;;4988499;28;20227;-60
2022/10/30 00:02:38;;;;;;;5.28;4.43;;;16.50;99.90;;;;;;4987226;28;20480;-61
2022/10/30 00:05:03;;;;;;;10.97;5.20;;;16.60;99.90;;;;;;4990157;28;20282;-60
2022/10/30 00:07:29;;;;;;;9.37;5.70;;;16.30;99.90;;;;;;4989264;28;20188;-60
2022/10/30 00:09:55;;;;;;;9.53;5.07;;;16.40;99.90;;;;;;4989745;28;20450;-60
2022/10/30 00:12:20;;;;;;;12.20;4.73;;;16.30;99.90;;;;;;4991652;28;20659;-61
2022/10/30 00:14:46;;;;;;;7.10;4.70;;;16.40;99.90;;;;;;4989616;28;20772;-61
2022/10/30 00:17:11;;;;;;;6.70;4.50;;;16.70;99.90;;;;;;4989077;28;20193;-61
2022/10/30 00:19:37;;;;;;;9.87;4.83;;;16.60;99.90;;;;;;4990416;28;20215;-61
2022/10/30 00:22:03;;;;;;;9.13;5.40;;;16.50;99.90;;;;;;4991746;28;20187;-61
2022/10/30 00:24:29;;;;;;;11.70;5.30;;;16.40;99.90;;;;;;4987729;28;20176;-61
2022/10/30 00:26:54;;;;;;;9.30;4.17;;;16.40;99.90;;;;;;4987163;28;20904;-61
2022/10/30 00:29:22;;;;;;;7.97;3.80;;;16.50;99.90;;;;;;4993908;28;20450;-61
2022/10/30 00:31:48;;;;;;;7.68;4.30;;;16.50;99.90;;;;;;4990927;28;20266;-60
2022/10/30 00:34:14;;;;;;;7.90;4.00;;;16.50;99.90;;;;;;4997766;28;20234;-61
2022/10/30 00:36:39;;;;;;;6.90;4.57;;;16.40;99.90;;;;;;4992818;28;20487;-61
2022/10/30 00:39:05;;;;;;;10.37;5.07;;;16.60;99.90;;;;;;4989365;28;20207;-61
2022/10/30 00:41:30;;;;;;;7.97;4.00;;;16.40;99.90;;;;;;4993911;28;20187;-61
2022/10/30 00:43:56;;;;;;;8.97;4.07;;;16.90;99.90;;;;;;4992138;28;20223;-61
2022/10/30 00:46:35;;;;;;;10.43;4.07;;;16.40;99.90;;;;;;4989196;28;20207;-61
2022/10/30 00:49:11;;;;;;;7.03;3.90;;;16.40;99.90;;;;;;4992734;28;20183;-61
2022/10/30 00:51:40;;;;;;;5.97;4.18;;;16.40;99.90;;;;;;4993749;28;20193;-61
2022/10/30 00:54:07;;;;;;;10.48;4.72;;;16.50;99.90;;;;;;4992719;28;20179;-61
2022/10/30 00:56:34;;;;;;;11.55;4.50;;;16.20;99.90;;;;;;4990975;28;20257;-61
2022/10/30 00:59:05;;;;;;;7.78;4.50;;;16.70;99.90;;;;;;4994551;28;20238;-61
2022/10/30 01:01:35;;;;;;;11.88;4.88;;;16.40;99.90;;;;;;4992776;28;20194;-61
2022/10/30 01:04:02;;;;;;;10.63;6.22;;;16.60;99.90;;;;;;4987880;28;20638;-61
2022/10/30 01:06:31;;;;;;;10.52;7.90;;;16.40;99.90;;;;;;4989862;28;20283;-61
2022/10/30 01:08:57;;;;;;;11.63;6.15;;;16.70;99.90;;;;;;5001747;28;20211;-61
2022/10/30 01:11:23;;;;;;;10.18;6.57;;;16.50;99.90;;;;;;4990243;28;20671;-61
2022/10/30 01:13:51;;;;;;;14.13;7.53;;;16.50;99.90;;;;;;4990899;28;20214;-61
2022/10/30 01:16:22;;;;;;;13.80;8.25;;;16.30;99.90;;;;;;4989455;28;20222;-61
2022/10/30 01:19:17;;;;;;;15.35;9.88;;;16.60;99.90;;;;;;4989594;28;20203;-61
2022/10/30 01:21:49;;;;;;;13.23;10.38;;;16.50;99.90;;;;;;4976059;28;20562;-61
2022/10/30 01:24:36;;;;;;;13.13;9.75;;;16.50;99.90;;;;;;4985495;28;20179;-61
2022/10/30 01:27:29;;;;;;;13.60;9.57;;;16.00;99.90;;;;;;4985160;28;20318;-61
2022/10/30 01:30:15;;;;;;;15.98;10.50;;;16.10;99.90;;;;;;4988886;28;20191;-61
2022/10/30 01:32:48;;;;;;;11.77;8.65;;;16.10;99.90;;;;;;4983331;28;20194;-62
2022/10/30 01:35:22;;;;;;;11.55;8.95;;;16.20;99.90;;;;;;4989032;28;20288;-62
2022/10/30 01:38:05;;;;;;;13.18;8.85;;;16.00;99.90;;;;;;4987952;28;20691;-62
2022/10/30 01:40:31;;;;;;;14.60;9.52;;;16.10;99.90;;;;;;4989250;28;20222;-62
2022/10/30 01:42:58;;;;;;;12.38;9.20;;;16.00;99.90;;;;;;4989747;28;20211;-62
2022/10/30 01:45:52;;;;;;;14.73;10.48;;;16.00;99.90;;;;;;4989628;28;20261;-62
2022/10/30 01:48:36;;;;;;;13.60;10.40;;;15.80;99.90;;;;;;5000081;28;20187;-62
2022/10/30 01:51:20;;;;;;;11.20;9.40;;;16.10;99.90;;;;;;4989260;28;20652;-62
2022/10/30 01:54:07;;;;;;;13.98;9.63;;;15.90;99.90;;;;;;4985936;28;20194;-62
2022/10/30 01:56:37;;;;;;;11.65;9.10;;;16.00;99.90;;;;;;4987232;28;20258;-62
2022/10/30 01:59:16;;;;;;;14.65;9.18;;;15.90;99.90;;;;;;4986690;28;20280;-62
2022/10/30 02:01:42;;;;;;;12.57;9.43;;;15.90;99.90;;;;;;4988094;28;20271;-62
2022/10/30 02:04:11;;;;;;;15.43;9.88;;;15.60;99.90;;;;;;4990123;28;20727;-62
2022/10/30 02:06:37;;;;;;;11.90;8.75;;;15.90;99.90;;;;;;4987317;28;20195;-62
2022/10/30 02:09:04;;;;;;;9.63;6.53;;;15.70;99.90;;;;;;4987003;28;20200;-62
2022/10/30 02:11:32;;;;;;;6.60;4.97;;;15.90;99.90;;;;;;4994999;28;20214;-62
2022/10/30 02:14:01;;;;;;;9.73;7.07;;;15.90;99.90;;;;;;4989515;28;20309;-62
2022/10/30 02:16:27;;;;;;;11.55;7.18;;;15.40;99.90;;;;;;4991884;28;20289;-63
2022/10/30 02:18:52;;;;;;;11.97;6.60;;;15.40;99.90;;;;;;4992492;28;20229;-62
2022/10/30 02:21:18;;;;;;;6.73;5.70;;;15.50;99.90;;;;;;4992203;28;20541;-62
2022/10/30 02:23:44;;;;;;;9.32;5.13;;;15.40;99.90;;;;;;4990251;28;20254;-62
2022/10/30 02:26:09;;;;;;;9.47;4.67;;;15.30;99.90;;;;;;4994432;28;20676;-62
2022/10/30 02:28:35;;;;;;;7.87;4.70;;;15.40;99.90;;;;;;4992815;28;20215;-62
2022/10/30 02:31:01;;;;;;;8.17;4.03;;;15.50;99.90;;;;;;4990842;28;20198;-62
2022/10/30 02:33:26;;;;;;;8.40;4.67;;;15.40;99.90;;;;;;4992832;28;20195;-62
2022/10/30 02:35:53;;;;;;;6.43;4.30;;;15.40;99.90;;;;;;4998467;28;20267;-62
2022/10/30 02:38:19;;;;;;;8.57;4.80;;;15.40;99.90;;;;;;4991013;28;20171;-62
2022/10/30 02:40:44;;;;;;;13.13;4.87;;;15.30;99.90;;;;;;4992861;28;20194;-62
2022/10/30 02:43:10;;;;;;;10.00;5.40;;;15.50;99.90;;;;;;4997666;28;20180;-62
2022/10/30 02:45:35;;;;;;;11.20;4.87;;;15.40;99.90;;;;;;4992479;28;20218;-62
2022/10/30 02:48:01;;;;;;;6.53;5.00;;;15.40;99.90;;;;;;4989205;28;20676;-62
2022/10/30 02:50:27;;;;;;;8.10;4.30;;;15.60;99.90;;;;;;4992708;28;20562;-62
2022/10/30 02:52:52;;;;;;;7.07;3.83;;;15.40;99.90;;;;;;4992052;28;20191;-62
2022/10/30 02:55:18;;;;;;;9.43;4.17;;;15.30;99.90;;;;;;4993226;28;20238;-62
2022/10/30 02:57:44;;;;;;;9.47;4.20;;;15.60;99.90;;;;;;4991663;28;20314;-62
2022/10/30 03:00:11;;;;;;;8.30;4.53;;;15.30;99.90;;;;;;4991262;28;20212;-62
2022/10/30 03:02:36;;;;;;;9.25;5.13;;;15.00;99.90;;;;;;4986424;28;20609;-62
2022/10/30 03:05:02;;;;;;;13.53;5.13;;;15.10;99.90;;;;;;4985286;28;20214;-62
2022/10/30 03:07:28;;;;;;;9.30;5.70;;;15.10;99.90;;;;;;4986525;28;20181;-62
2022/10/30 03:09:53;;;;;;;10.63;6.07;;;15.00;99.90;;;;;;5008139;28;20975;-62
2022/10/30 03:12:19;;;;;;;5.67;5.00;;;15.20;99.90;;;;;;4994615;28;20609;-62
2022/10/30 03:14:45;;;;;;;8.48;4.85;;;15.00;99.90;;;;;;4991811;28;20712;-62
2022/10/30 03:17:11;;;;;;;10.70;5.77;;;15.10;99.90;;;;;;4988768;28;20223;-61
2022/10/30 03:19:36;;;;;;;14.47;5.50;;;15.10;99.90;;;;;;4992795;28;20249;-61
2022/10/30 03:22:02;;;;;;;8.43;5.40;;;15.00;99.90;;;;;;4993630;28;20183;-61
2022/10/30 03:24:27;;;;;;;8.70;5.37;;;14.90;99.90;;;;;;4991060;28;20238;-61
2022/10/30 03:26:53;;;;;;;8.80;5.53;;;14.90;99.90;;;;;;4993189;28;20668;-62
2022/10/30 03:29:19;;;;;;;10.50;5.77;;;14.70;99.90;;;;;;4994042;28;20262;-62
2022/10/30 03:31:44;;;;;;;9.67;5.43;;;15.00;99.90;;;;;;4991820;28;20188;-62
2022/10/30 03:34:10;;;;;;;8.27;5.80;;;15.00;99.90;;;;;;4992457;28;20200;-62
2022/10/30 03:36:35;;;;;;;10.23;5.00;;;15.00;99.90;;;;;;4992462;28;20696;-62
2022/10/30 03:39:01;;;;;;;9.10;5.50;;;14.40;99.90;;;;;;4989569;28;20211;-62
2022/10/30 03:41:27;;;;;;;6.80;5.60;;;15.20;99.90;;;;;;4993063;28;20641;-62
2022/10/30 03:43:52;;;;;;;7.00;4.70;;;14.90;99.90;;;;;;4993389;28;20693;-62
2022/10/30 03:46:18;;;;;;;6.53;4.70;;;15.00;99.90;;;;;;4992731;28;20409;-62
2022/10/30 03:48:47;;;;;;;8.20;5.00;;;14.90;99.90;;;;;;4991099;28;20290;-62
2022/10/30 03:51:12;;;;;;;6.80;5.28;;;14.50;99.90;;;;;;4992685;28;20195;-62
2022/10/30 03:53:38;;;;;;;7.40;4.90;;;14.70;99.90;;;;;;4992533;28;20187;-62
2022/10/30 03:56:04;;;;;;;8.50;6.40;;;14.60;99.90;;;;;;4992223;28;20219;-62
2022/10/30 03:58:30;;;;;;;5.90;4.70;;;14.70;99.90;;;;;;4992075;28;20661;-62
2022/10/30 04:01:03;;;;;;;9.23;4.90;;;14.60;99.90;;;;;;4992012;28;21271;-62
2022/10/30 04:03:28;;;;;;;7.18;5.45;;;14.70;99.90;;;;;;5000704;28;20451;-62
2022/10/30 04:05:54;;;;;;;7.20;4.90;;;14.50;99.90;;;;;;4988302;28;20211;-62
2022/10/30 04:08:19;;;;;;;9.80;5.07;;;14.50;99.90;;;;;;4990248;28;20527;-61
2022/10/30 04:10:46;;;;;;;6.50;4.60;;;14.60;99.90;;;;;;4991849;28;20188;-61
2022/10/30 04:13:13;;;;;;;10.45;4.97;;;14.50;99.90;;;;;;4990123;28;20274;-61
2022/10/30 04:15:39;;;;;;;6.05;4.63;;;14.80;99.90;;;;;;4989010;28;20215;-61
2022/10/30 04:18:05;;;;;;;11.93;4.80;;;14.50;99.90;;;;;;4991424;28;20664;-61
2022/10/30 04:20:31;;;;;;;10.07;4.40;;;14.60;99.90;;;;;;4991078;28;20478;-61
2022/10/30 04:22:59;;;;;;;9.70;5.10;;;14.40;99.90;;;;;;4990130;28;20194;-62
2022/10/30 04:25:26;;;;;;;7.95;4.75;;;14.30;99.90;;;;;;4990946;28;20199;-61
2022/10/30 04:27:51;;;;;;;9.40;4.95;;;14.10;99.90;;;;;;4989804;28;20188;-61
2022/10/30 04:30:22;;;;;;;7.87;5.03;;;14.20;99.90;;;;;;4990186;28;20759;-61
2022/10/30 04:32:50;;;;;;;13.18;5.43;;;14.40;99.90;;;;;;4989058;28;20474;-62
2022/10/30 04:35:17;;;;;;;8.50;5.40;;;13.90;99.90;;;;;;4988711;28;20211;-61
2022/10/30 04:37:50;;;;;;;7.75;5.20;;;14.30;99.90;;;;;;4990337;28;20187;-61
2022/10/30 04:40:16;;;;;;;8.65;4.53;;;14.00;99.90;;;;;;4990700;28;20200;-61
2022/10/30 04:42:41;;;;;;;7.80;6.00;;;14.10;99.90;;;;;;4989709;28;20195;-62
2022/10/30 04:45:07;;;;;;;6.80;5.07;;;14.20;99.90;;;;;;4989416;28;20202;-64
2022/10/30 04:47:33;;;;;;;7.18;4.55;;;14.30;99.90;;;;;;4989459;28;20193;-61
2022/10/30 04:49:58;;;;;;;8.50;4.80;;;14.30;99.90;;;;;;4989915;28;20191;-62
2022/10/30 04:52:24;;;;;;;8.20;5.33;;;14.00;99.90;;;;;;4989660;28;20347;-61
2022/10/30 04:54:50;;;;;;;10.53;5.00;;;14.30;99.90;;;;;;4991156;28;20564;-62
2022/10/30 04:57:15;;;;;;;7.63;4.87;;;14.10;99.90;;;;;;4989599;28;20188;-61
2022/10/30 04:59:41;;;;;;;13.40;5.43;;;14.10;99.90;;;;;;4988171;28;20250;-61
2022/10/30 05:02:06;;;;;;;8.70;5.77;;;14.10;99.90;;;;;;4989769;28;20219;-62
2022/10/30 05:04:32;;;;;;;7.80;5.10;;;14.20;99.90;;;;;;4986517;28;20211;-62
2022/10/30 05:06:57;;;;;;;6.20;4.83;;;14.20;99.90;;;;;;4988184;28;20191;-62
2022/10/30 05:09:23;;;;;;;9.07;4.93;;;14.30;99.90;;;;;;4989023;28;20191;-62
2022/10/30 05:11:49;;;;;;;7.83;5.67;;;14.10;99.90;;;;;;4990736;28;20675;-62
2022/10/30 05:14:14;;;;;;;8.97;5.67;;;14.50;99.90;;;;;;4990148;28;20176;-62
2022/10/30 05:16:40;;;;;;;15.77;6.07;;;14.70;99.90;;;;;;4989501;28;20180;-62
2022/10/30 05:19:05;;;;;;;6.27;4.70;;;14.60;99.90;;;;;;4989472;28;20207;-62
2022/10/30 05:21:31;;;;;;;9.77;5.90;;;14.50;99.90;;;;;;4990264;28;20565;-62
2022/10/30 05:23:56;;;;;;;6.20;5.10;;;14.70;99.90;;;;;;4989391;28;20666;-62
2022/10/30 05:26:22;;;;;;;8.30;6.23;;;14.60;99.90;;;;;;4988786;28;20587;-62
2022/10/30 05:28:48;;;;;;;6.77;5.20;;;14.80;99.90;;;;;;4990248;28;20187;-62
2022/10/30 05:31:13;;;;;;;7.90;5.33;;;14.50;99.90;;;;;;4987152;28;20191;-62
2022/10/30 05:33:39;;;;;;;9.00;5.47;;;14.80;99.90;;;;;;4989424;28;20195;-62
2022/10/30 05:36:04;;;;;;;9.07;5.83;;;14.90;99.90;;;;;;4989701;28;20559;-62
2022/10/30 05:38:30;;;;;;;11.00;6.17;;;14.50;99.90;;;;;;4981875;28;20314;-62
2022/10/30 05:40:55;;;;;;;9.77;6.23;;;14.70;99.90;;;;;;4986479;28;20593;-62
2022/10/30 05:43:21;;;;;;;11.70;5.50;;;14.80;99.90;;;;;;4984171;28;20616;-62
2022/10/30 05:45:50;;;;;;;7.67;6.20;;;14.90;99.90;;;;;;4985859;28;20223;-62
2022/10/30 05:48:15;;;;;;;8.82;5.25;;;14.90;99.90;;;;;;4985360;28;20677;-62
2022/10/30 05:50:41;;;;;;;8.67;5.80;;;14.60;99.90;;;;;;4988305;28;20209;-60
2022/10/30 05:53:06;;;;;;;14.13;5.60;;;14.70;99.90;;;;;;4988861;28;20196;-61
2022/10/30 05:55:32;;;;;;;7.57;5.60;;;14.40;99.90;;;;;;4987169;28;20207;-61
2022/10/30 05:58:03;;;;;;;10.90;5.77;;;14.80;99.90;;;;;;4989538;28;20283;-61
2022/10/30 06:00:32;;;;;;;7.47;5.28;;;14.60;99.90;;;;;;4987017;28;21055;-61
2022/10/30 06:03:02;;;;;;;9.50;5.55;;;14.50;99.90;;;;;;4988693;28;20184;-61
2022/10/30 06:05:29;;;;;;;7.25;5.78;;;14.50;99.90;;;;;;4993030;28;21161;-61
2022/10/30 06:07:55;;;;;;;10.50;5.38;;;14.60;99.90;;;;;;4990163;28;20193;-61
2022/10/30 06:10:24;;;;;;;9.53;6.10;;;14.80;99.90;;;;;;4989797;28;20286;-61
2022/10/30 06:13:01;;;;;;;10.88;7.50;;;14.50;99.90;;;;;;4988842;28;20443;-61
2022/10/30 06:15:27;;;;;;;10.48;5.75;;;14.80;99.90;;;;;;4991010;28;20235;-60
2022/10/30 06:17:54;;;;;;;12.02;6.10;;;14.40;99.90;;;;;;4986055;28;20195;-60
2022/10/30 06:20:21;;;;;;;10.57;5.95;;;14.40;99.90;;;;;;4994113;28;20302;-61
2022/10/30 06:22:59;;;;;;;8.27;5.35;;;14.80;99.90;;;;;;4988582;28;20239;-61
2022/10/30 06:25:25;;;;;;;6.85;5.00;;;14.60;99.90;;;;;;4991973;28;20579;-62
2022/10/30 06:27:51;;;;;;;11.95;5.72;;;14.80;99.90;;;;;;4991142;28;20179;-60
2022/10/30 06:30:17;;;;;;;9.03;5.53;;;14.50;99.90;;;;;;4991025;28;20184;-61
2022/10/30 06:32:43;;;;;;;7.40;5.32;;;14.70;99.90;;;;;;4993129;28;20183;-60
2022/10/30 06:35:08;;;;;;;8.60;5.73;;;14.70;99.90;;;;;;4992412;28;20210;-61
2022/10/30 06:37:34;;;;;;;9.43;5.30;;;14.80;99.90;;;;;;4988554;28;20186;-61
2022/10/30 06:40:00;;;;;;;10.50;5.70;;;14.80;99.90;;;;;;4988642;28;20212;-61
2022/10/30 06:42:26;;;;;;;9.20;6.10;;;14.90;99.90;;;;;;4994057;28;20944;-61
2022/10/30 06:44:51;;;;;;;7.20;5.50;;;14.90;99.90;;;;;;5006957;28;20207;-61
2022/10/30 06:47:17;;;;;;;10.63;5.47;;;14.70;99.90;;;;;;4990126;28;20188;-61
2022/10/30 06:49:42;;;;;;;13.87;6.83;;;14.90;99.90;;;;;;4991507;28;20199;-61
2022/10/30 06:52:08;;;;;;;10.13;5.87;;;14.70;99.90;;;;;;4991422;28;20197;-60
2022/10/30 06:54:34;;;;;;;10.70;5.27;;;14.90;99.90;;;;;;4989453;28;20824;-61
2022/10/30 06:56:59;;;;;;;8.30;4.83;;;14.70;99.90;;;;;;4991081;28;20203;-61
2022/10/30 06:59:25;;;;;;;7.50;5.00;;;14.90;99.90;;;;;;4989772;28;20212;-61
2022/10/30 07:01:50;;;;;;;9.97;4.70;;;15.10;99.90;;;;;;4990190;28;20175;-60
2022/10/30 07:04:16;;;;;;;7.23;5.47;;;15.00;99.90;;;;;;4989422;28;20613;-60
2022/10/30 07:06:42;;;;;;;8.27;6.00;;;15.10;99.90;;;;;;4987072;28;20188;-61
2022/10/30 07:09:07;;;;;;;9.33;4.63;;;15.40;99.90;;;;;;4991478;28;20537;-66
2022/10/30 07:11:33;;;;;;;6.10;5.00;;;15.40;99.90;;;;;;4991365;28;20401;-61
2022/10/30 07:13:59;;;;;;;9.70;5.60;;;15.40;99.90;;;;;;4989037;28;20607;-63
2022/10/30 07:16:24;;;;;;;8.87;4.90;;;15.20;99.90;;;;;;4988229;28;20294;-64
2022/10/30 07:18:50;;;;;;;8.23;5.23;;;15.10;99.90;;;;;;4986467;28;20202;-63
2022/10/30 07:21:16;;;;;;;7.05;4.70;;;15.10;99.90;;;;;;4989390;28;20191;-66
2022/10/30 07:23:41;;;;;;;9.27;5.30;;;15.10;99.90;;;;;;4988086;28;20722;-64
2022/10/30 07:26:07;;;;;;;7.93;5.10;;;15.60;99.90;;;;;;4991915;28;20289;-64
2022/10/30 07:28:33;;;;;;;13.13;5.63;;;15.30;99.90;;;;;;4986197;28;20195;-64
2022/10/30 07:30:58;;;;;;;6.37;4.80;;;15.50;99.90;;;;;;4991535;28;20263;-62
2022/10/30 07:33:24;;;;;;;13.20;5.03;;;15.50;99.90;;;;;;4986094;28;20258;-62
2022/10/30 07:35:50;;;;;;;9.38;5.75;;;15.70;99.90;;;;;;4997136;28;20211;-62
2022/10/30 07:38:16;;;;;;;8.60;5.47;;;15.90;99.90;;;;;;4988292;28;20187;-62
2022/10/30 07:40:42;;;;;;;10.68;5.03;;;15.80;99.90;;;;;;4987705;28;20204;-62
2022/10/30 07:43:12;;;;;;;9.07;5.40;;;15.70;99.90;;;;;;4991193;28;20301;-62
2022/10/30 07:45:38;;;;;;;8.32;5.43;;;15.80;99.90;;;;;;4982550;28;20968;-62
2022/10/30 07:48:04;;;;;;;7.80;4.85;;;15.80;99.90;;;;;;4982707;28;20505;-62
2022/10/30 07:50:30;;;;;;;14.70;5.60;;;15.80;99.90;;;;;;4987185;28;20254;-62
2022/10/30 07:52:55;;;;;;;9.47;5.10;;;15.90;99.90;;;;;;4981187;28;21619;-63
2022/10/30 07:55:21;;;;;;;6.90;4.80;;;15.70;99.90;;;;;;4982901;28;21021;-63
2022/10/30 07:57:47;;;;;;;7.00;5.30;;;15.90;99.90;;;;;;4987838;28;20188;-63
2022/10/30 08:00:14;;;;;;;8.70;4.70;;;16.00;99.90;;;;;;4987131;28;20207;-63
2022/10/30 08:02:40;;;;;;;13.90;4.97;;;16.00;99.90;;;;;;4988532;28;20455;-63
2022/10/30 08:05:06;;;;;;;10.30;5.05;;;16.10;99.90;;;;;;4985959;28;20206;-63
2022/10/30 08:07:34;;;;;;;5.90;4.60;;;16.40;99.90;;;;;;4983955;28;20307;-63
2022/10/30 08:09:59;;;;;;;7.65;4.72;;;16.60;99.90;;;;;;4987197;28;20194;-63
2022/10/30 08:12:26;;;;;;;7.77;4.63;;;16.50;99.90;;;;;;4987668;28;20273;-63
2022/10/30 08:14:52;;;;;;;7.18;4.88;;;16.60;99.90;;;;;;4985047;28;20207;-63
2022/10/30 08:17:18;;;;;;;8.68;4.53;;;16.70;99.90;;;;;;4987169;28;20262;-63
2022/10/30 08:19:44;;;;;;;8.43;4.93;;;16.70;99.90;;;;;;4994809;28;20222;-64
2022/10/30 08:22:10;;;;;;;6.70;4.57;;;16.60;99.90;;;;;;4985520;28;20565;-63
2022/10/30 08:24:36;;;;;;;6.03;4.68;;;16.80;99.90;;;;;;4987602;28;20211;-64
2022/10/30 08:27:02;;;;;;;9.63;4.70;;;16.80;99.90;;;;;;4994740;28;20183;-63
2022/10/30 08:29:27;;;;;;;9.65;4.78;;;16.70;99.90;;;;;;4991053;28;20199;-63
2022/10/30 08:31:53;;;;;;;6.40;3.63;;;16.80;99.90;;;;;;4990685;28;20191;-63
2022/10/30 08:34:19;;;;;;;8.17;4.40;;;17.20;99.90;;;;;;4987569;28;20258;-64
2022/10/30 08:36:48;;;;;;;6.10;4.00;;;16.90;99.90;;;;;;4990045;28;20661;-63
2022/10/30 08:39:14;;;;;;;6.75;4.50;;;17.10;99.90;;;;;;4987259;28;20302;-63
2022/10/30 08:41:40;;;;;;;6.13;4.33;;;17.20;99.90;;;;;;4995949;28;20183;-63
2022/10/30 08:44:05;;;;;;;4.93;4.13;;;17.30;99.90;;;;;;4991462;28;20951;-63
2022/10/30 08:46:31;;;;;;;8.70;4.67;;;17.30;99.90;;;;;;4999615;28;20211;-62
2022/10/30 08:48:57;;;;;;;5.47;4.97;;;17.30;99.90;;;;;;4988249;28;20183;-64
2022/10/30 08:51:22;;;;;;;13.70;5.20;;;17.40;99.90;;;;;;4993008;28;20809;-62
2022/10/30 08:53:48;;;;;;;6.50;5.53;;;17.50;99.90;;;;;;4990827;28;20443;-62
2022/10/30 08:56:15;;;;;;;9.55;6.50;;;17.70;99.90;;;;;;4997082;28;20710;-63
2022/10/30 08:58:41;;;;;;;6.95;5.45;;;17.70;99.90;;;;;;4990181;28;20648;-63
2022/10/30 09:01:06;;;;;;;10.10;6.80;;;17.90;99.90;;;;;;4989958;28;20187;-63
2022/10/30 09:03:32;;;;;;;10.90;7.60;;;17.80;99.90;;;;;;4991308;28;20545;-63
2022/10/30 09:05:58;;;;;;;8.33;6.83;;;18.00;99.90;;;;;;4987673;28;20207;-63
2022/10/30 09:08:24;;;;;;;14.52;6.50;;;18.50;99.90;;;;;;4988905;28;20195;-63
2022/10/30 09:10:54;;;;;;;9.37;5.97;;;18.50;99.90;;;;;;4989329;28;20195;-64
2022/10/30 09:13:20;;;;;;;9.80;6.63;;;18.70;99.90;;;;;;4991517;28;20931;-64
2022/10/30 09:15:46;;;;;;;6.80;5.87;;;18.80;99.90;;;;;;4989337;28;20291;-63
2022/10/30 09:18:11;;;;;;;8.80;6.20;;;18.90;99.90;;;;;;4980346;28;20200;-63
2022/10/30 09:20:37;;;;;;;7.23;5.17;;;19.00;99.90;;;;;;4984997;28;20301;-63
2022/10/30 09:23:03;;;;;;;9.90;5.73;;;19.10;99.90;;;;;;4987375;28;20214;-64
2022/10/30 09:25:28;;;;;;;10.33;5.80;;;19.10;99.90;;;;;;4990488;28;20215;-61
2022/10/30 09:27:54;;;;;;;7.90;5.67;;;19.20;99.90;;;;;;4989432;28;20172;-64
2022/10/30 09:30:20;;;;;;;10.00;6.10;;;19.00;99.90;;;;;;4988054;28;20186;-63
2022/10/30 09:32:53;;;;;;;8.15;6.00;;;19.20;99.90;;;;;;4985034;28;20246;-63
2022/10/30 09:35:19;;;;;;;9.02;6.13;;;19.20;99.90;;;;;;4988914;28;20222;-62
2022/10/30 09:37:44;;;;;;;12.60;6.70;;;19.20;99.90;;;;;;5013878;22;20569;-79
2022/10/30 09:40:28;;;;;;;6.83;6.10;;;19.90;99.90;;;;;;4997864;28;20285;-79
2022/10/30 09:43:02;;;;;;;12.82;6.25;;;19.80;99.90;;;;;;4991625;28;20205;-78
2022/10/30 09:46:06;;;;;;;7.97;6.38;;;20.20;99.90;;;;;;4996495;28;20194;-78
2022/10/30 09:48:44;;;;;;;7.25;6.40;;;19.90;99.90;;;;;;4983892;28;20636;-79
2022/10/30 09:51:13;;;;;;;9.57;6.70;;;20.20;99.90;;;;;;4989405;28;20175;-79
2022/10/30 09:53:57;;;;;;;7.85;5.30;;;20.00;99.90;;;;;;4996013;28;20198;-78
2022/10/30 09:56:25;;;;;;;7.10;5.80;;;19.90;99.90;;;;;;4989383;28;20222;-80
2022/10/30 09:59:14;;;;;;;9.40;5.97;;;20.20;99.90;;;;;;4993886;28;20726;-79
2022/10/30 10:02:00;;;;;;;8.30;6.63;;;19.70;99.90;;;;;;4985116;28;20664;-79
2022/10/30 10:04:43;;;;;;;10.85;6.30;;;20.10;99.90;;;;;;4991213;28;20597;-79
2022/10/30 10:07:31;;;;;;;14.20;6.90;;;20.20;99.80;;;;;;4992193;28;20191;-79
2022/10/30 10:10:05;;;;;;;8.93;6.40;;;20.40;99.50;;;;;;4988910;28;20238;-79
2022/10/30 10:12:36;;;;;;;7.20;5.55;;;20.60;99.20;;;;;;4991371;28;20198;-78
2022/10/30 10:15:11;;;;;;;10.45;5.72;;;20.80;98.80;;;;;;4990481;28;20190;-79
2022/10/30 10:17:41;;;;;;;6.60;5.70;;;21.30;98.80;;;;;;4999532;28;20186;-79
2022/10/30 10:20:28;;;;;;;10.38;5.90;;;21.50;98.60;;;;;;4991256;28;20275;-79
2022/10/30 10:22:57;;;;;;;15.18;6.80;;;21.50;97.90;;;;;;4996998;28;20255;-79
2022/10/30 10:25:23;;;;;;;12.53;5.93;;;22.70;97.70;;;;;;4990105;28;20650;-79
2022/10/30 10:28:22;;;;;;;10.07;6.03;;;23.00;95.10;;;;;;4988442;28;20490;-79
2022/10/30 10:30:54;;;;;;;7.70;5.80;;;23.30;94.40;;;;;;4995185;28;20453;-78
2022/10/30 10:33:32;;;;;;;7.23;5.20;;;23.60;93.50;;;;;;4996126;28;20442;-79
2022/10/30 10:36:30;;;;;;;8.43;6.13;;;24.10;93.00;;;;;;4993583;28;20971;-79
2022/10/30 10:39:27;;;;;;;8.87;6.23;;;24.40;92.40;;;;;;4973375;28;20479;-79
2022/10/30 10:42:29;;;;;;;11.20;6.60;;;24.90;91.40;;;;;;4989523;28;20526;-79
2022/10/30 10:45:18;;;;;;;9.97;6.77;;;25.40;90.70;;;;;;4985789;28;20449;-79
2022/10/30 10:48:03;;;;;;;8.80;6.17;;;26.10;88.00;;;;;;4985551;28;20662;-81
2022/10/30 10:50:42;;;;;;;11.27;5.33;;;27.20;84.40;;;;;;4993210;28;20440;-79
2022/10/30 10:53:19;;;;;;;8.07;6.13;;;28.50;79.90;;;;;;4988156;28;20536;-79
2022/10/30 10:55:51;;;;;;;9.20;5.77;;;29.00;76.90;;;;;;4989825;28;20945;-79
2022/10/30 10:58:40;;;;;;;7.93;5.73;;;28.60;75.90;;;;;;4990246;28;20946;-79
2022/10/30 11:01:12;;;;;;;10.03;6.20;;;28.10;76.60;;;;;;4989811;28;20448;-79
2022/10/30 11:03:47;;;;;;;9.37;6.47;;;27.70;78.50;;;;;;4988623;28;20491;-79
2022/10/30 11:06:19;;;;;;;7.57;6.80;;;27.40;80.00;;;;;;4990599;28;20448;-79
2022/10/30 11:08:44;;;;;;;10.13;6.37;;;27.10;81.20;;;;;;4989259;28;20989;-79
2022/10/30 11:11:10;;;;;;;7.33;5.90;;;26.90;82.00;;;;;;4992823;28;20430;-79
2022/10/30 11:13:38;;;;;;;10.47;5.83;;;26.60;82.60;;;;;;4999463;28;20270;-79
2022/10/30 11:16:18;;;;;;;7.33;5.90;;;26.50;83.60;;;;;;4988980;28;20190;-79
2022/10/30 11:18:45;;;;;;;11.03;6.67;;;26.60;83.80;;;;;;4989707;28;20558;-79
2022/10/30 11:21:18;;;;;;;9.80;6.53;;;26.80;83.60;;;;;;4986116;28;20485;-79
2022/10/30 11:23:46;;;;;;;9.63;6.50;;;26.60;84.70;;;;;;4982631;28;20522;-79
2022/10/30 11:26:17;;;;;;;9.57;7.93;;;26.60;86.00;;;;;;4989476;28;20738;-79
2022/10/30 11:28:55;;;;;;;8.90;7.07;;;26.10;86.40;;;;;;4986333;28;20589;-79
2022/10/30 11:31:22;;;;;;;8.43;6.30;;;25.90;88.20;;;;;;4988455;28;20446;-78
2022/10/30 11:33:49;;;;;;;6.07;5.43;;;25.90;88.50;;;;;;4987946;28;20528;-78
2022/10/30 11:36:18;;;;;;;9.07;6.17;;;25.30;88.30;;;;;;4989644;28;20436;-79
2022/10/30 11:38:43;;;;;;;9.70;6.60;;;24.90;89.50;;;;;;4982842;28;20467;-79
2022/10/30 11:41:10;;;;;;;8.73;5.93;;;24.90;90.40;;;;;;4989138;28;20446;-79
2022/10/30 11:43:37;;;;;;;8.27;6.23;;;24.90;90.60;;;;;;4983461;28;20525;-79
2022/10/30 11:46:08;;;;;;;9.10;6.50;;;24.90;91.30;;;;;;4981890;28;20435;-78
2022/10/30 11:48:39;;;;;;;8.17;6.77;;;24.80;90.70;;;;;;4986729;28;20450;-79
2022/10/30 11:51:05;;;;;;;9.93;7.50;;;25.50;91.50;;;;;;4985457;28;20439;-78
2022/10/30 11:53:38;;;;;;;7.87;7.07;;;25.00;91.90;;;;;;4985931;28;20443;-78
2022/10/30 11:56:17;;;;;;;10.73;7.37;;;24.40;92.00;;;;;;4987294;28;20446;-78
2022/10/30 11:58:55;;;;;;;9.20;7.97;;;24.30;92.10;;;;;;4988069;28;20470;-78
2022/10/30 12:01:49;;;;;;;11.60;7.53;;;24.10;92.30;;;;;;4985328;28;20446;-78
2022/10/30 12:04:23;;;;;;;8.87;7.20;;;23.90;92.50;;;;;;4996229;28;20458;-79
2022/10/30 12:07:30;;;;;;;9.97;7.60;;;23.70;93.00;;;;;;4984646;28;20434;-78
2022/10/30 12:09:58;;;;;;;7.40;6.70;;;23.50;93.70;;;;;;4981343;28;21105;-78
2022/10/30 12:12:30;;;;;;;8.00;6.93;;;23.40;94.30;;;;;;4990714;28;20553;-79
2022/10/30 12:15:09;;;;;;;8.07;6.63;;;23.50;95.20;;;;;;4989325;28;21056;-78
2022/10/30 12:17:37;;;;;;;9.20;7.97;;;23.20;95.90;;;;;;4985899;28;20434;-79
2022/10/30 12:20:04;;;;;;;10.80;7.33;;;23.20;96.20;;;;;;4984822;28;20482;-79
2022/10/30 12:22:32;;;;;;;7.60;6.60;;;23.10;96.70;;;;;;4986539;28;20438;-78
2022/10/30 12:25:00;;;;;;;7.67;6.50;;;23.30;97.60;;;;;;4990678;28;20960;-78
2022/10/30 12:27:27;;;;;;;9.97;7.00;;;23.10;97.50;;;;;;4993767;28;20439;-78
2022/10/30 12:30:04;;;;;;;9.73;7.13;;;23.20;97.90;;;;;;4985387;28;20840;-78
2022/10/30 12:32:45;;;;;;;13.40;6.50;;;23.10;98.10;;;;;;4981417;28;20474;-79
2022/10/30 12:35:24;;;;;;;11.13;7.10;;;22.90;98.60;;;;;;4989374;28;20527;-77
2022/10/30 12:37:52;;;;;;;10.87;7.50;;;23.00;98.70;;;;;;4996400;28;20860;-77
2022/10/30 12:40:30;;;;;;;8.00;6.97;;;23.50;99.10;;;;;;4998958;28;20485;-78
2022/10/30 12:43:02;;;;;;;11.17;7.10;;;23.90;99.30;;;;;;4985466;28;20485;-77
2022/10/30 12:45:36;;;;;;;10.30;7.93;;;23.20;99.10;;;;;;4984317;28;20522;-77
2022/10/30 12:48:16;;;;;;;8.80;6.73;;;23.40;99.40;;;;;;4986940;28;20542;-78
2022/10/30 12:50:51;;;;;;;10.50;8.70;;;23.00;99.90;;;;;;4986472;28;20446;-78
2022/10/30 12:53:28;;;;;;;13.30;7.70;;;23.30;99.90;;;;;;4987660;28;20838;-78